createdAt,value
2023-04-28T00:00:30.776Z,44.25
2023-04-28T00:02:03.048Z,43.28
2023-04-28T00:03:35.410Z,43.25
2023-04-28T00:05:07.931Z,44.70
2023-04-28T00:06:41.410Z,44.03
2023-04-28T00:08:13.449Z,45.64
2023-04-28T00:09:45.439Z,45.76
2023-04-28T00:11:17.460Z,46.99
2023-04-28T00:12:49.550Z,48.73
2023-04-28T00:14:21.717Z,48.71
2023-04-28T00:15:54.366Z,50.58
2023-04-28T00:17:26.612Z,48.94
2023-04-28T00:18:58.891Z,48.18
2023-04-28T00:20:31.009Z,48.92
2023-04-28T00:22:03.013Z,48.80
2023-04-28T00:23:35.740Z,51.14
2023-04-28T00:25:09.404Z,50.95
2023-04-28T00:26:41.642Z,50.48
2023-04-28T00:28:18.389Z,50.92
2023-04-28T00:29:59.133Z,51.17
2023-04-28T00:33:04.047Z,52.65
2023-04-28T00:34:39.212Z,53.05
2023-04-28T00:36:12.048Z,53.02
2023-04-28T00:37:44.188Z,52.36
2023-04-28T00:39:17.119Z,52.37
2023-04-28T00:40:49.169Z,52.11
2023-04-28T00:42:21.186Z,52.37
2023-04-28T00:43:53.343Z,52.81
2023-04-28T00:45:25.506Z,52.43
2023-04-28T00:46:59.661Z,53.43
2023-04-28T00:48:31.928Z,53.51
2023-04-28T00:50:07.346Z,53.86
2023-04-28T00:51:39.428Z,53.07
2023-04-28T00:53:12.518Z,50.95
2023-04-28T00:54:44.814Z,49.63
2023-04-28T00:56:17.464Z,48.95
2023-04-28T00:57:49.542Z,48.92
2023-04-28T00:59:21.593Z,48.83
2023-04-28T01:00:53.649Z,49.54
2023-04-28T01:02:26.345Z,50.16
2023-04-28T01:03:58.765Z,49.73
2023-04-28T01:05:31.394Z,49.68
2023-04-28T01:07:04.429Z,50.60
2023-04-28T01:08:37.455Z,51.25
2023-04-28T01:10:10.187Z,51.61
2023-04-28T01:11:42.465Z,52.42
2023-04-28T01:13:14.479Z,53.09
2023-04-28T01:14:47.021Z,53.45
2023-04-28T01:16:19.214Z,53.48
2023-04-28T01:17:51.941Z,53.91
2023-04-28T01:19:24.139Z,54.04
2023-04-28T01:20:56.645Z,54.32
2023-04-28T01:22:28.740Z,54.71
2023-04-28T01:24:01.924Z,55.33
2023-04-28T01:25:33.999Z,55.12
2023-04-28T01:27:06.505Z,55.22
2023-04-28T01:28:38.571Z,55.37
2023-04-28T01:30:12.976Z,56.39
2023-04-28T01:31:45.104Z,57.00
2023-04-28T01:33:17.262Z,57.20
2023-04-28T01:34:49.464Z,58.70
2023-04-28T01:36:23.024Z,59.35
2023-04-28T01:37:55.084Z,60.45
2023-04-28T01:39:27.150Z,60.16
2023-04-28T01:41:00.049Z,60.49
2023-04-28T01:42:32.185Z,60.44
2023-04-28T01:44:05.410Z,60.90
2023-04-28T01:45:37.381Z,61.32
2023-04-28T01:47:09.799Z,60.89
2023-04-28T01:48:41.858Z,62.05
2023-04-28T01:50:14.086Z,62.44
2023-04-28T01:51:46.187Z,62.49
2023-04-28T01:53:21.030Z,63.05
2023-04-28T01:54:53.143Z,63.45
2023-04-28T01:56:25.269Z,63.96
2023-04-28T01:57:58.810Z,64.34
2023-04-28T01:59:31.422Z,64.86
2023-04-28T02:01:03.595Z,64.65
2023-04-28T02:02:35.965Z,65.13
2023-04-28T02:04:08.093Z,65.49
2023-04-28T02:05:40.192Z,66.09
2023-04-28T02:07:12.318Z,66.26
2023-04-28T02:08:44.348Z,66.91
2023-04-28T02:10:16.527Z,67.53
2023-04-28T02:11:48.986Z,67.62
2023-04-28T02:13:21.045Z,67.69
2023-04-28T02:14:53.097Z,67.79
2023-04-28T02:16:25.316Z,67.74
2023-04-28T02:17:57.662Z,67.91
2023-04-28T02:19:32.868Z,67.88
2023-04-28T02:21:12.093Z,68.66
2023-04-28T02:22:44.106Z,68.99
2023-04-28T02:24:16.643Z,68.99
2023-04-28T02:25:48.928Z,69.36
2023-04-28T02:27:21.837Z,69.04
2023-04-28T02:28:54.040Z,69.37
2023-04-28T02:30:26.122Z,69.34
2023-04-28T02:31:58.189Z,69.85
2023-04-28T02:33:30.266Z,70.26
2023-04-28T02:35:02.506Z,70.75
2023-04-28T02:36:34.562Z,70.92
2023-04-28T02:38:06.658Z,71.28
2023-04-28T02:39:38.650Z,71.30
2023-04-28T02:41:11.079Z,71.25
2023-04-28T02:42:43.549Z,71.59
2023-04-28T02:44:15.879Z,71.79
2023-04-28T02:45:48.065Z,71.92
2023-04-28T02:47:20.118Z,71.95
2023-04-28T02:48:52.254Z,71.78
2023-04-28T02:50:24.420Z,71.74
2023-04-28T02:51:56.661Z,71.61
2023-04-28T02:53:29.087Z,71.23
2023-04-28T02:55:01.229Z,70.60
2023-04-28T02:56:34.029Z,70.70
2023-04-28T02:58:06.472Z,71.08
2023-04-28T02:59:38.584Z,71.07
2023-04-28T03:01:10.735Z,70.97
2023-04-28T03:02:42.908Z,70.96
2023-04-28T03:04:16.180Z,70.92
2023-04-28T03:05:48.421Z,70.66
2023-04-28T03:07:20.568Z,71.01
2023-04-28T03:08:52.650Z,71.94
2023-04-28T03:10:24.891Z,72.04
2023-04-28T03:11:57.017Z,71.88
2023-04-28T03:13:30.471Z,72.16
2023-04-28T03:15:02.485Z,72.26
2023-04-28T03:16:34.787Z,72.57
2023-04-28T03:18:07.006Z,72.24
2023-04-28T03:19:39.229Z,72.13
2023-04-28T03:21:11.489Z,72.21
2023-04-28T03:22:43.556Z,72.26
2023-04-28T03:24:15.906Z,72.34
2023-04-28T03:25:48.196Z,72.47
2023-04-28T03:27:20.417Z,72.82
2023-04-28T03:28:52.650Z,72.89
2023-04-28T03:30:24.811Z,72.75
2023-04-28T03:31:57.479Z,72.72
2023-04-28T03:33:29.951Z,72.56
2023-04-28T03:35:02.363Z,72.63
2023-04-28T03:36:34.431Z,73.06
2023-04-28T03:38:07.370Z,73.08
2023-04-28T03:39:39.511Z,73.07
2023-04-28T03:41:11.807Z,73.43
2023-04-28T03:42:43.992Z,73.51
2023-04-28T03:44:16.228Z,73.78
2023-04-28T03:45:49.895Z,73.33
2023-04-28T03:47:22.281Z,73.04
2023-04-28T03:48:54.496Z,72.81
2023-04-28T03:50:26.840Z,72.62
2023-04-28T03:51:59.000Z,72.61
2023-04-28T03:53:31.065Z,72.82
2023-04-28T03:55:03.194Z,72.35
2023-04-28T03:56:35.384Z,72.25
2023-04-28T03:58:07.500Z,72.86
2023-04-28T03:59:40.139Z,72.91
2023-04-28T04:01:12.633Z,73.23
2023-04-28T04:02:45.005Z,73.71
2023-04-28T04:04:17.970Z,74.21
2023-04-28T04:05:50.637Z,74.22
2023-04-28T04:07:23.559Z,74.92
2023-04-28T04:08:55.970Z,74.87
2023-04-28T04:10:28.270Z,75.24
2023-04-28T04:12:01.626Z,75.39
2023-04-28T04:13:33.770Z,75.28
2023-04-28T04:15:06.705Z,75.39
2023-04-28T04:16:39.560Z,75.09
2023-04-28T04:18:11.761Z,75.27
2023-04-28T04:19:43.817Z,75.23
2023-04-28T04:21:16.038Z,75.24
2023-04-28T04:22:48.355Z,74.68
2023-04-28T04:24:20.441Z,74.90
2023-04-28T04:25:52.566Z,74.96
2023-04-28T04:27:24.822Z,75.04
2023-04-28T04:28:57.199Z,75.43
2023-04-28T04:30:29.358Z,75.99
2023-04-28T04:32:01.411Z,76.09
2023-04-28T04:33:35.036Z,75.51
2023-04-28T04:35:07.492Z,75.50
2023-04-28T04:36:39.629Z,75.34
2023-04-28T04:38:11.813Z,74.76
2023-04-28T04:39:43.962Z,74.21
2023-04-28T04:41:16.252Z,74.78
2023-04-28T04:42:48.368Z,74.05
2023-04-28T04:44:20.495Z,73.99
2023-04-28T04:45:52.579Z,73.74
2023-04-28T04:47:24.954Z,73.50
2023-04-28T04:48:57.334Z,72.92
2023-04-28T04:50:29.390Z,72.91
2023-04-28T04:52:02.176Z,72.93
2023-04-28T04:53:34.398Z,72.60
2023-04-28T04:55:07.284Z,72.77
2023-04-28T04:56:39.495Z,72.97
2023-04-28T04:58:11.997Z,72.64
2023-04-28T04:59:44.102Z,72.64
2023-04-28T05:01:16.268Z,72.17
2023-04-28T05:02:51.573Z,71.55
2023-04-28T05:04:24.235Z,71.16
2023-04-28T05:05:56.472Z,71.03
2023-04-28T05:07:28.575Z,71.30
2023-04-28T05:09:00.770Z,70.62
2023-04-28T05:10:33.207Z,70.17
2023-04-28T05:12:06.066Z,69.95
2023-04-28T05:13:38.167Z,69.73
2023-04-28T05:15:10.709Z,69.69
2023-04-28T05:16:42.988Z,69.35
2023-04-28T05:18:15.411Z,68.63
2023-04-28T05:19:47.464Z,69.20
2023-04-28T05:21:19.577Z,69.97
2023-04-28T05:22:51.804Z,68.68
2023-04-28T05:24:24.375Z,67.73
2023-04-28T05:25:56.602Z,67.48
2023-04-28T05:27:28.891Z,67.66
2023-04-28T05:29:01.011Z,67.26
2023-04-28T05:30:33.765Z,67.40
2023-04-28T05:32:06.458Z,66.85
2023-04-28T05:33:38.624Z,64.67
2023-04-28T05:35:11.003Z,62.74
2023-04-28T05:36:43.609Z,62.36
2023-04-28T05:38:15.775Z,61.76
2023-04-28T05:39:47.953Z,62.27
2023-04-28T05:41:20.137Z,62.73
2023-04-28T05:42:52.264Z,62.10
2023-04-28T05:44:24.621Z,61.00
2023-04-28T05:45:56.992Z,58.63
2023-04-28T05:47:30.743Z,56.23
2023-04-28T05:49:02.983Z,55.73
2023-04-28T05:50:36.058Z,55.78
2023-04-28T05:52:09.159Z,55.21
2023-04-28T05:53:41.521Z,53.57
2023-04-28T05:55:16.355Z,52.06
2023-04-28T05:56:48.521Z,52.31
2023-04-28T05:58:20.638Z,52.67
2023-04-28T05:59:52.834Z,51.00
2023-04-28T06:01:28.567Z,49.31
2023-04-28T06:03:01.216Z,49.11
2023-04-28T06:04:33.763Z,50.26
2023-04-28T06:06:09.781Z,48.97
2023-04-28T06:07:42.415Z,49.27
2023-04-28T06:09:14.747Z,49.25
2023-04-28T06:10:47.246Z,50.00
2023-04-28T06:12:19.903Z,50.77
2023-04-28T06:13:52.203Z,49.84
2023-04-28T06:15:24.489Z,47.67
2023-04-28T06:16:56.710Z,47.28
2023-04-28T06:18:32.980Z,47.95
2023-04-28T06:20:06.415Z,48.08
2023-04-28T06:21:38.591Z,47.38
2023-04-28T06:23:10.746Z,48.49
2023-04-28T06:24:43.330Z,47.16
2023-04-28T06:26:17.987Z,47.09
2023-04-28T06:27:50.443Z,47.05
2023-04-28T06:29:24.450Z,45.79
2023-04-28T06:30:56.556Z,46.06
2023-04-28T06:32:28.911Z,46.16
2023-04-28T06:34:01.122Z,45.80
2023-04-28T06:35:36.109Z,45.73
2023-04-28T06:37:08.280Z,44.72
2023-04-28T06:38:43.260Z,44.80
2023-04-28T06:40:15.482Z,45.24
2023-04-28T06:41:47.880Z,44.42
2023-04-28T06:43:20.456Z,44.49
2023-04-28T06:44:52.630Z,44.26
2023-04-28T06:46:24.990Z,43.68
2023-04-28T06:47:57.337Z,43.36
2023-04-28T06:49:29.550Z,44.25
2023-04-28T06:51:01.775Z,45.26
2023-04-28T06:52:39.177Z,45.13
2023-04-28T06:54:11.998Z,44.31
2023-04-28T06:55:44.199Z,42.98
2023-04-28T06:57:16.316Z,44.89
2023-04-28T06:58:51.219Z,44.09
2023-04-28T07:01:57.701Z,43.86
2023-04-28T07:03:29.979Z,42.39
2023-04-28T07:05:02.168Z,41.48
2023-04-28T07:06:34.286Z,42.00
2023-04-28T07:08:06.897Z,41.19
2023-04-28T07:09:39.691Z,42.07
2023-04-28T07:11:12.031Z,42.24
2023-04-28T07:12:44.213Z,41.83
2023-04-28T07:14:16.653Z,42.23
2023-04-28T07:15:48.960Z,41.83
2023-04-28T07:17:21.044Z,42.20
2023-04-28T07:18:53.175Z,42.20
2023-04-28T07:20:25.423Z,42.58
2023-04-28T07:21:57.666Z,41.28
2023-04-28T07:23:29.878Z,42.08
2023-04-28T07:25:02.029Z,42.79
2023-04-28T07:26:34.348Z,40.79
2023-04-28T07:28:06.822Z,40.38
2023-04-28T07:29:38.973Z,39.88
2023-04-28T07:31:11.114Z,40.73
2023-04-28T07:32:44.354Z,40.75
2023-04-28T07:34:16.784Z,40.30
2023-04-28T07:35:49.895Z,40.59
2023-04-28T07:37:22.016Z,41.99
2023-04-28T07:38:54.265Z,42.58
2023-04-28T07:40:26.364Z,41.51
2023-04-28T07:41:59.466Z,41.98
2023-04-28T07:43:31.666Z,39.54
2023-04-28T07:45:06.035Z,40.31
2023-04-28T07:46:38.507Z,40.98
2023-04-28T07:48:10.767Z,40.37
2023-04-28T07:49:42.872Z,39.98
2023-04-28T07:51:14.996Z,41.22
2023-04-28T07:52:47.157Z,39.30
2023-04-28T07:54:19.698Z,40.94
2023-04-28T07:55:52.142Z,40.43
2023-04-28T07:57:24.286Z,40.99
2023-04-28T07:58:56.558Z,40.79
2023-04-28T08:00:28.893Z,39.36
2023-04-28T08:02:01.086Z,38.98
2023-04-28T08:03:33.636Z,39.04
2023-04-28T08:06:38.971Z,39.76
2023-04-28T08:08:11.160Z,40.11
2023-04-28T08:09:47.578Z,39.86
2023-04-28T08:11:19.829Z,39.72
2023-04-28T08:12:53.234Z,40.28
2023-04-28T08:14:25.431Z,41.26
2023-04-28T08:15:57.700Z,40.26
2023-04-28T08:17:29.833Z,39.70
2023-04-28T08:19:02.206Z,39.43
2023-04-28T08:20:34.458Z,39.19
2023-04-28T08:22:07.614Z,39.55
2023-04-28T08:23:39.785Z,39.52
2023-04-28T08:25:11.975Z,39.20
2023-04-28T08:26:44.483Z,38.95
2023-04-28T08:28:16.957Z,38.84
2023-04-28T08:29:49.025Z,39.24
2023-04-28T08:31:21.177Z,39.22
2023-04-28T08:32:53.544Z,39.43
2023-04-28T08:34:25.717Z,38.79
2023-04-28T08:35:57.913Z,39.43
2023-04-28T08:37:30.178Z,42.00
2023-04-28T08:39:04.566Z,39.98
2023-04-28T08:40:37.877Z,40.92
2023-04-28T08:42:10.203Z,39.86
2023-04-28T08:43:43.653Z,40.80
2023-04-28T08:45:16.191Z,39.50
2023-04-28T08:46:50.416Z,40.80
2023-04-28T08:48:23.125Z,39.73
2023-04-28T08:49:56.490Z,41.30
2023-04-28T08:51:33.811Z,40.27
2023-04-28T08:53:07.666Z,40.67
2023-04-28T08:54:43.520Z,40.12
2023-04-28T08:56:17.273Z,40.69
2023-04-28T08:57:52.656Z,39.52
2023-04-28T08:59:25.164Z,39.48
2023-04-28T09:00:57.342Z,39.38
2023-04-28T09:02:29.547Z,42.45
2023-04-28T09:05:34.881Z,41.16
2023-04-28T09:07:13.530Z,40.12
2023-04-28T09:08:45.739Z,39.63
2023-04-28T09:10:25.128Z,39.46
2023-04-28T09:12:05.286Z,38.75
2023-04-28T09:13:38.050Z,39.32
2023-04-28T09:15:10.798Z,39.28
2023-04-28T09:16:42.952Z,39.52
2023-04-28T09:18:16.011Z,38.97
2023-04-28T09:19:48.411Z,38.62
2023-04-28T09:21:20.670Z,38.91
2023-04-28T09:22:54.390Z,41.96
2023-04-28T09:24:37.224Z,42.28
2023-04-28T09:26:09.375Z,40.73
2023-04-28T09:27:41.577Z,39.71
2023-04-28T09:29:14.318Z,39.51
2023-04-28T09:30:46.477Z,41.13
2023-04-28T09:32:21.297Z,39.34
2023-04-28T09:34:00.589Z,39.15
2023-04-28T09:35:43.395Z,39.38
2023-04-28T09:37:23.215Z,38.98
2023-04-28T09:38:58.501Z,39.25
2023-04-28T09:40:30.780Z,41.54
2023-04-28T09:42:04.116Z,40.31
2023-04-28T09:43:36.527Z,40.01
2023-04-28T09:45:16.396Z,38.51
2023-04-28T09:46:49.010Z,39.65
2023-04-28T09:48:31.759Z,38.59
2023-04-28T09:50:09.004Z,38.83
2023-04-28T09:51:41.549Z,39.00
2023-04-28T09:53:13.923Z,38.84
2023-04-28T09:54:46.287Z,40.49
2023-04-28T09:56:21.385Z,42.96
2023-04-28T09:57:55.227Z,40.53
2023-04-28T09:59:28.219Z,39.78
2023-04-28T10:01:01.490Z,38.77
2023-04-28T10:04:12.606Z,44.09
2023-04-28T10:05:45.727Z,40.29
2023-04-28T10:07:20.225Z,43.72
2023-04-28T10:08:52.580Z,42.86
2023-04-28T10:10:25.623Z,40.39
2023-04-28T10:11:57.859Z,39.60
2023-04-28T10:13:30.429Z,41.11
2023-04-28T10:15:02.658Z,40.43
2023-04-28T10:16:35.173Z,37.75
2023-04-28T10:18:08.154Z,38.46
2023-04-28T10:19:42.068Z,40.97
2023-04-28T10:21:18.958Z,39.84
2023-04-28T10:23:25.324Z,40.47
2023-04-28T10:25:12.490Z,37.79
2023-04-28T10:27:03.765Z,39.96
2023-04-28T10:28:36.050Z,37.43
2023-04-28T10:32:22.297Z,42.63
2023-04-28T10:33:55.165Z,39.17
2023-04-28T10:35:37.955Z,39.44
2023-04-28T10:37:10.165Z,40.09
2023-04-28T10:39:14.680Z,39.02
2023-04-28T10:40:47.960Z,38.54
2023-04-28T10:44:31.523Z,40.40
2023-04-28T10:46:06.661Z,42.34
2023-04-28T10:48:06.666Z,42.85
2023-04-28T10:49:57.957Z,41.63
2023-04-28T10:51:30.724Z,42.12
2023-04-28T10:53:02.917Z,44.14
2023-04-28T10:54:35.093Z,41.13
2023-04-28T10:56:07.591Z,41.51
2023-04-28T10:57:39.741Z,42.73
2023-04-28T10:59:30.653Z,41.21
2023-04-28T11:01:21.128Z,43.45
2023-04-28T11:02:53.753Z,42.81
2023-04-28T11:04:26.377Z,42.13
2023-04-28T11:06:27.784Z,43.36
2023-04-28T11:08:25.991Z,42.26
2023-04-28T11:09:58.252Z,40.84
2023-04-28T11:11:31.728Z,39.77
2023-04-28T11:13:26.434Z,39.11
2023-04-28T11:15:12.430Z,39.29
2023-04-28T11:16:55.179Z,39.36
2023-04-28T11:18:29.101Z,38.66
2023-04-28T11:20:02.714Z,38.24
2023-04-28T11:21:34.918Z,40.96
2023-04-28T11:23:08.499Z,40.08
2023-04-28T11:24:40.674Z,39.66
2023-04-28T11:26:15.823Z,39.65
2023-04-28T11:27:50.944Z,40.57
2023-04-28T11:29:36.767Z,39.00
2023-04-28T11:31:19.776Z,41.13
2023-04-28T11:32:52.186Z,37.42
2023-04-28T11:34:25.492Z,36.18
2023-04-28T11:35:57.559Z,35.98
2023-04-28T11:37:29.692Z,37.26
2023-04-28T11:39:05.430Z,35.30
2023-04-28T11:40:37.633Z,36.02
2023-04-28T11:42:10.841Z,36.01
2023-04-28T11:43:47.391Z,36.39
2023-04-28T11:45:20.102Z,35.83
2023-04-28T11:46:57.634Z,37.09
2023-04-28T11:48:29.714Z,35.67
2023-04-28T11:50:02.410Z,36.36
2023-04-28T11:51:37.308Z,34.76
2023-04-28T11:53:09.535Z,33.45
2023-04-28T11:54:44.632Z,34.36
2023-04-28T11:56:16.752Z,33.58
2023-04-28T11:57:49.007Z,34.96
2023-04-28T11:59:29.686Z,35.85
2023-04-28T12:01:11.861Z,33.64
2023-04-28T12:02:44.273Z,34.47
2023-04-28T12:04:38.317Z,35.06
2023-04-28T12:06:10.609Z,35.83
2023-04-28T12:07:46.065Z,35.90
2023-04-28T12:09:21.829Z,34.15
2023-04-28T12:11:14.302Z,37.57
2023-04-28T12:12:52.505Z,34.40
2023-04-28T12:14:26.047Z,34.86
2023-04-28T12:16:03.122Z,34.00
2023-04-28T12:17:40.487Z,34.06
2023-04-28T12:19:13.264Z,33.50
2023-04-28T12:20:45.537Z,32.89
2023-04-28T12:22:18.311Z,33.74
2023-04-28T12:23:50.986Z,34.79
2023-04-28T12:25:23.073Z,36.50
2023-04-28T12:26:55.561Z,36.75
2023-04-28T12:28:41.376Z,37.16
2023-04-28T12:30:23.253Z,40.05
2023-04-28T12:31:55.553Z,36.58
2023-04-28T12:33:29.390Z,38.82
2023-04-28T12:35:01.453Z,35.59
2023-04-28T12:36:33.605Z,34.19
2023-04-28T12:38:05.715Z,34.04
2023-04-28T12:39:39.765Z,33.69
2023-04-28T12:41:12.210Z,33.61
2023-04-28T12:42:44.492Z,32.93
2023-04-28T12:44:16.663Z,33.12
2023-04-28T12:45:49.536Z,32.93
2023-04-28T12:47:21.674Z,33.33
2023-04-28T12:48:54.212Z,33.91
2023-04-28T12:50:28.368Z,33.61
2023-04-28T12:52:00.514Z,35.77
2023-04-28T12:53:32.795Z,34.17
2023-04-28T12:55:05.465Z,37.00
2023-04-28T12:56:37.647Z,34.13
2023-04-28T12:58:09.765Z,34.02
2023-04-28T12:59:42.424Z,34.73
2023-04-28T13:01:16.410Z,34.79
2023-04-28T13:02:48.662Z,33.57
2023-04-28T13:04:21.167Z,36.12
2023-04-28T13:05:53.452Z,33.42
2023-04-28T13:07:25.588Z,34.14
2023-04-28T13:08:57.679Z,35.12
2023-04-28T13:10:30.294Z,37.41
2023-04-28T13:12:07.288Z,35.33
2023-04-28T13:13:39.480Z,34.45
2023-04-28T13:15:12.283Z,35.27
2023-04-28T13:16:44.478Z,34.34
2023-04-28T13:18:16.674Z,34.40
2023-04-28T13:19:49.253Z,34.62
2023-04-28T13:21:21.318Z,37.76
2023-04-28T13:22:53.466Z,34.73
2023-04-28T13:24:25.517Z,36.90
2023-04-28T13:25:57.600Z,35.57
2023-04-28T13:27:31.051Z,35.51
2023-04-28T13:29:04.456Z,34.19
2023-04-28T13:30:36.474Z,35.63
2023-04-28T13:32:09.062Z,34.56
2023-04-28T13:33:41.545Z,33.18
2023-04-28T13:35:13.898Z,31.91
2023-04-28T13:36:46.193Z,31.92
2023-04-28T13:38:19.411Z,35.56
2023-04-28T13:39:51.628Z,35.52
2023-04-28T13:41:23.764Z,35.27
2023-04-28T13:42:58.381Z,33.78
2023-04-28T13:44:30.596Z,34.95
2023-04-28T13:47:34.911Z,34.53
2023-04-28T13:49:07.176Z,36.13
2023-04-28T13:50:39.659Z,34.45
2023-04-28T13:52:12.015Z,36.11
2023-04-28T13:53:44.288Z,36.75
2023-04-28T13:55:16.681Z,36.23
2023-04-28T13:56:49.137Z,35.77
2023-04-28T13:58:21.286Z,34.61
2023-04-28T13:59:53.657Z,35.93
2023-04-28T14:01:25.879Z,35.42
2023-04-28T14:02:58.255Z,33.48
2023-04-28T14:04:30.894Z,34.62
2023-04-28T14:06:03.478Z,33.87
2023-04-28T14:07:35.830Z,32.78
2023-04-28T14:09:08.500Z,32.91
2023-04-28T14:10:40.652Z,33.82
2023-04-28T14:12:14.253Z,32.44
2023-04-28T14:13:46.417Z,35.51
2023-04-28T14:15:18.538Z,33.37
2023-04-28T14:16:50.794Z,33.73
2023-04-28T14:18:23.000Z,33.23
2023-04-28T14:19:55.171Z,33.29
2023-04-28T14:21:27.297Z,35.27
2023-04-28T14:22:59.958Z,32.68
2023-04-28T14:24:32.321Z,34.07
2023-04-28T14:26:04.704Z,33.09
2023-04-28T14:27:36.974Z,34.59
2023-04-28T14:29:09.785Z,35.15
2023-04-28T14:30:42.160Z,35.95
2023-04-28T14:32:16.796Z,33.47
2023-04-28T14:33:48.904Z,34.30
2023-04-28T14:35:21.962Z,33.87
2023-04-28T14:36:54.055Z,34.90
2023-04-28T14:38:26.276Z,36.58
2023-04-28T14:39:58.720Z,34.20
2023-04-28T14:41:30.934Z,34.82
2023-04-28T14:43:03.070Z,33.31
2023-04-28T14:44:35.528Z,33.58
2023-04-28T14:46:08.430Z,34.86
2023-04-28T14:47:41.753Z,34.64
2023-04-28T14:49:13.792Z,35.58
2023-04-28T14:50:46.560Z,34.49
2023-04-28T14:52:18.781Z,34.31
2023-04-28T14:53:51.338Z,32.92
2023-04-28T14:55:23.563Z,34.06
2023-04-28T14:56:55.677Z,35.02
2023-04-28T14:58:27.966Z,34.71
2023-04-28T15:00:00.310Z,34.67
2023-04-28T15:01:32.392Z,34.31
2023-04-28T15:03:04.817Z,34.20
2023-04-28T15:04:37.202Z,34.52
2023-04-28T15:06:09.474Z,36.01
2023-04-28T15:07:41.556Z,35.63
2023-04-28T15:09:14.001Z,36.17
2023-04-28T15:10:46.296Z,35.44
2023-04-28T15:12:18.478Z,34.23
2023-04-28T15:13:50.591Z,35.13
2023-04-28T15:16:55.509Z,34.45
2023-04-28T15:18:28.506Z,36.21
2023-04-28T15:20:00.761Z,36.72
2023-04-28T15:21:33.241Z,35.55
2023-04-28T15:23:05.360Z,35.65
2023-04-28T15:24:37.416Z,34.73
2023-04-28T15:26:11.267Z,33.99
2023-04-28T15:27:43.980Z,35.13
2023-04-28T15:29:16.592Z,35.02
2023-04-28T15:30:48.857Z,35.00
2023-04-28T15:32:20.983Z,35.16
2023-04-28T15:33:53.320Z,37.51
2023-04-28T15:35:25.444Z,38.34
2023-04-28T15:36:57.609Z,37.55
2023-04-28T15:38:31.815Z,36.08
2023-04-28T15:40:07.638Z,36.13
2023-04-28T15:41:39.820Z,36.57
2023-04-28T15:43:13.718Z,36.33
2023-04-28T15:44:45.974Z,36.24
2023-04-28T15:46:18.241Z,36.97
2023-04-28T15:47:51.337Z,34.47
2023-04-28T15:49:23.532Z,36.67
2023-04-28T15:50:56.262Z,34.92
2023-04-28T15:52:28.456Z,34.61
2023-04-28T15:54:00.916Z,34.21
2023-04-28T15:55:33.176Z,35.54
2023-04-28T15:57:05.985Z,35.38
2023-04-28T15:58:38.280Z,35.51
2023-04-28T16:00:11.842Z,34.73
2023-04-28T16:01:44.387Z,35.70
2023-04-28T16:03:17.325Z,35.82
2023-04-28T16:04:49.701Z,36.56
2023-04-28T16:06:22.028Z,36.51
2023-04-28T16:07:55.441Z,35.91
2023-04-28T16:09:27.449Z,36.55
2023-04-28T16:10:59.608Z,36.99
2023-04-28T16:12:31.805Z,37.15
2023-04-28T16:14:04.653Z,37.05
2023-04-28T16:15:36.831Z,36.87
2023-04-28T16:17:09.176Z,35.83
2023-04-28T16:18:41.418Z,35.31
2023-04-28T16:20:13.862Z,34.96
2023-04-28T16:21:46.049Z,35.41
2023-04-28T16:23:19.125Z,35.69
2023-04-28T16:26:22.997Z,35.79
2023-04-28T16:27:55.250Z,35.04
2023-04-28T16:29:27.390Z,35.57
2023-04-28T16:30:59.874Z,36.48
2023-04-28T16:32:33.897Z,37.19
2023-04-28T16:34:06.042Z,37.33
2023-04-28T16:35:38.302Z,37.63
2023-04-28T16:37:12.077Z,38.04
2023-04-28T16:38:46.162Z,37.84
2023-04-28T16:40:18.786Z,38.43
2023-04-28T16:41:51.047Z,38.71
2023-04-28T16:43:23.286Z,38.43
2023-04-28T16:44:55.504Z,38.38
2023-04-28T16:46:27.914Z,38.14
2023-04-28T16:48:00.159Z,37.67
2023-04-28T16:49:32.464Z,38.29
2023-04-28T16:51:08.582Z,38.61
2023-04-28T16:52:41.086Z,38.57
2023-04-28T16:54:13.300Z,38.55
2023-04-28T16:55:45.477Z,38.69
2023-04-28T16:57:17.570Z,42.03
2023-04-28T16:58:49.714Z,42.27
2023-04-28T17:00:22.214Z,43.04
2023-04-28T17:01:54.368Z,41.51
2023-04-28T17:03:26.935Z,43.19
2023-04-28T17:05:01.869Z,42.40
2023-04-28T17:06:34.254Z,42.76
2023-04-28T17:08:06.308Z,43.78
2023-04-28T17:09:39.031Z,44.10
2023-04-28T17:11:11.673Z,44.86
2023-04-28T17:12:45.980Z,45.85
2023-04-28T17:14:18.885Z,46.68
2023-04-28T17:15:58.188Z,47.14
2023-04-28T17:17:30.382Z,47.23
2023-04-28T17:19:03.184Z,47.63
2023-04-28T17:20:35.745Z,48.38
2023-04-28T17:22:07.824Z,48.47
2023-04-28T17:23:40.492Z,49.36
2023-04-28T17:25:13.143Z,49.65
2023-04-28T17:26:45.519Z,49.88
2023-04-28T17:28:17.664Z,50.26
2023-04-28T17:29:50.103Z,50.47
2023-04-28T17:31:23.328Z,51.68
2023-04-28T17:32:55.740Z,51.64
2023-04-28T17:34:27.877Z,52.06
2023-04-28T17:36:00.003Z,52.13
2023-04-28T17:37:35.304Z,52.59
2023-04-28T17:39:07.754Z,53.59
2023-04-28T17:40:39.913Z,53.59
2023-04-28T17:42:12.100Z,53.99
2023-04-28T17:43:44.309Z,53.91
2023-04-28T17:45:16.505Z,53.63
2023-04-28T17:46:48.860Z,54.71
2023-04-28T17:48:21.428Z,56.72
2023-04-28T17:49:53.649Z,57.03
2023-04-28T17:51:26.024Z,57.64
2023-04-28T17:52:58.467Z,58.17
2023-04-28T17:54:32.437Z,58.69
2023-04-28T17:56:04.661Z,59.21
2023-04-28T17:57:37.112Z,59.13
2023-04-28T17:59:09.340Z,60.80
2023-04-28T18:00:41.449Z,61.18
2023-04-28T18:02:13.975Z,61.26
2023-04-28T18:03:46.426Z,61.59
2023-04-28T18:05:18.669Z,61.76
2023-04-28T18:06:50.900Z,62.50
2023-04-28T18:08:24.177Z,61.91
2023-04-28T18:09:57.742Z,62.25
2023-04-28T18:11:30.177Z,63.50
2023-04-28T18:13:02.933Z,63.12
2023-04-28T18:14:35.168Z,62.66
2023-04-28T18:16:11.164Z,63.46
2023-04-28T18:17:46.334Z,64.05
2023-04-28T18:19:18.425Z,63.51
2023-04-28T18:20:50.781Z,63.52
2023-04-28T18:22:23.141Z,64.40
2023-04-28T18:23:55.283Z,63.67
2023-04-28T18:25:27.950Z,64.43
2023-04-28T18:27:01.150Z,64.26
2023-04-28T18:28:34.498Z,64.92
2023-04-28T18:30:08.445Z,65.65
2023-04-28T18:31:41.185Z,65.44
2023-04-28T18:33:13.617Z,65.44
2023-04-28T18:34:45.871Z,64.07
2023-04-28T18:36:18.046Z,66.10
2023-04-28T18:37:50.136Z,66.25
2023-04-28T18:39:23.370Z,67.02
2023-04-28T18:40:55.596Z,67.37
2023-04-28T19:29:17.472Z,72.67
2023-04-28T19:30:50.306Z,73.23
2023-04-28T19:32:22.526Z,73.50
2023-04-28T19:33:54.835Z,73.78
2023-04-28T19:35:27.592Z,73.92
2023-04-28T19:37:00.223Z,74.10
2023-04-28T19:38:32.699Z,74.23
2023-04-28T19:40:05.403Z,74.56
2023-04-28T19:41:37.519Z,74.56
2023-04-28T19:43:10.160Z,75.01
2023-04-28T19:44:42.419Z,75.17
2023-04-28T19:46:15.622Z,75.46
2023-04-28T19:47:47.883Z,75.50
2023-04-28T19:49:20.018Z,75.60
2023-04-28T19:50:52.457Z,75.26
2023-04-28T19:52:24.878Z,75.51
2023-04-28T19:53:57.225Z,75.60
2023-04-28T19:55:29.759Z,75.65
2023-04-28T19:57:02.218Z,76.07
2023-04-28T19:58:34.363Z,76.09
2023-04-28T20:00:08.549Z,76.09
2023-04-28T20:01:42.824Z,76.19
2023-04-28T20:03:15.334Z,76.17
2023-04-28T20:04:49.310Z,76.06
2023-04-28T20:06:21.539Z,76.00
2023-04-28T20:07:56.249Z,75.91
2023-04-28T20:09:28.750Z,75.84
2023-04-28T20:11:00.867Z,76.15
2023-04-28T20:12:33.591Z,76.32
2023-04-28T20:14:05.819Z,76.49
2023-04-28T20:15:38.197Z,76.70
2023-04-28T20:17:10.684Z,76.87
2023-04-28T20:18:42.916Z,76.95
2023-04-28T20:20:15.100Z,76.95
2023-04-28T20:21:47.293Z,77.20
2023-04-28T20:23:19.469Z,77.43
2023-04-28T20:24:51.610Z,77.54
2023-04-28T20:26:23.749Z,77.36
2023-04-28T20:27:55.999Z,77.51
2023-04-28T20:29:31.573Z,77.49
2023-04-28T20:31:03.827Z,77.66
2023-04-28T20:32:37.068Z,77.51
2023-04-28T20:34:09.227Z,77.03
2023-04-28T20:35:41.382Z,76.85
2023-04-28T20:37:14.400Z,76.21
2023-04-28T20:38:46.544Z,75.79
2023-04-28T20:40:18.753Z,75.58
2023-04-28T20:41:51.019Z,75.07
2023-04-28T20:43:24.438Z,74.83
2023-04-28T20:44:56.447Z,74.62
2023-04-28T20:46:28.635Z,75.19
2023-04-28T20:48:00.978Z,75.33
2023-04-28T20:49:35.892Z,75.54
2023-04-28T20:51:08.096Z,75.90
2023-04-28T20:52:40.350Z,76.35
2023-04-28T20:54:13.327Z,76.74
2023-04-28T20:55:45.458Z,77.39
2023-04-28T20:57:17.614Z,77.39
2023-04-28T20:58:49.821Z,77.72
2023-04-28T21:00:22.097Z,78.14
2023-04-28T21:01:55.029Z,78.44
2023-04-28T21:03:27.333Z,78.68
2023-04-28T21:04:59.368Z,78.32